HTDA/DAR METAR and TAF weather

Enter ICAO airport designator
Station Type Date Time Source
HTDA METAR 2020/09/19 23:00 UTC NOAA

HTDA 192300Z 00000KT 9999 FEW011 21/20 Q1014 NOSIG


Station Type Date Time Source
HTDA Decoded METAR 2020/09/19 23:00 UTC NOAA

Dar Es Salaam Airport, Tanzania (HTDA) 06-52S 039-12E 55M
Sep 19, 2020 - 07:00 PM EDT / 2020.09.19 2300 UTC
Wind: Calm:0
Visibility: greater than 7 mile(s):0
Sky conditions: mostly clear
Temperature: 69 F (21 C)
Dew Point: 68 F (20 C)
Relative Humidity: 94%
Pressure (altimeter): 29.94 in. Hg (1014 hPa)
ob: HTDA 192300Z 00000KT 9999 FEW011 21/20 Q1014 NOSIG
cycle: 23

Station Type Date Time Source
HTDA TAF 2020/09/19 18:15 UTC NOAA

TAF TAF HTDA 191700Z 1918/2024 12010KT 9999 SCT015
BECMG 2008/2011 BKN026

Example: see airport list